Terminal Aerodrome Forecast
Issued by NWS

Home | Current Version | Previous Version | Text Only | Print | Product List | Glossary On
Versions: 1 2 3 4 5 6 7 8 9 10 11 12 13 14 15 16 17 18 19
000
FTUS43 KEAX 300520
TAFMKC
TAF
KMKC 300520Z 3006/3106 01004KT P6SM BKN035
     FM300800 04005KT 6SM BR SCT008 OVC012
      TEMPO 3009/3013 4SM BR OVC009
     FM301400 05006KT P6SM BKN018
     FM301800 13007KT P6SM SCT025 BKN035=

USA.gov is the U.S. government's official web portal to all federal, state and local government web resources and services.